createdAt,value
2018-04-16T00:02:22.744Z,14.60
2018-04-16T00:04:51.951Z,14.60
2018-04-16T00:07:21.342Z,14.50
2018-04-16T00:09:53.522Z,14.50
2018-04-16T00:12:23.853Z,14.40
2018-04-16T00:14:54.174Z,14.40
2018-04-16T00:17:24.577Z,14.40
2018-04-16T00:19:54.164Z,14.40
2018-04-16T00:22:23.177Z,14.30
2018-04-16T00:24:52.233Z,14.20
2018-04-16T00:27:22.029Z,14.20
2018-04-16T00:29:57.716Z,14.20
2018-04-16T00:32:30.851Z,14.20
2018-04-16T00:35:05.411Z,14.10
2018-04-16T00:39:44.615Z,14.00
2018-04-16T00:42:19.370Z,14.00
2018-04-16T00:47:00.835Z,13.90
2018-04-16T00:49:34.984Z,13.80
2018-04-16T00:54:13.210Z,13.80
2018-04-16T00:56:48.357Z,13.70
2018-04-16T01:00:23.409Z,13.70
2018-04-16T01:05:02.480Z,13.70
2018-04-16T01:07:36.888Z,13.70
2018-04-16T01:10:11.043Z,13.70
2018-04-16T01:12:45.801Z,13.70
2018-04-16T01:16:18.277Z,13.60
2018-04-16T01:19:55.883Z,13.60
2018-04-16T01:22:30.867Z,13.50
2018-04-16T01:27:09.562Z,13.50
2018-04-16T01:31:47.362Z,13.50
2018-04-16T01:35:25.273Z,13.40
2018-04-16T01:38:59.936Z,13.40
2018-04-16T01:43:37.690Z,13.40
2018-04-16T01:47:09.951Z,13.30
2018-04-16T01:50:45.051Z,13.20
2018-04-16T01:54:21.892Z,13.30
2018-04-16T01:56:56.214Z,13.30
2018-04-16T02:01:38.870Z,13.20
2018-04-16T02:05:17.279Z,13.20
2018-04-16T02:09:52.535Z,13.20
2018-04-16T02:14:29.244Z,13.10
2018-04-16T02:19:06.619Z,13.10
2018-04-16T02:23:44.509Z,13.10
2018-04-16T02:28:20.617Z,13.00
2018-04-16T02:32:59.365Z,13.00
2018-04-16T02:35:34.451Z,13.00
2018-04-16T02:39:08.476Z,13.00
2018-04-16T02:43:47.218Z,12.90
2018-04-16T02:46:22.258Z,12.90
2018-04-16T02:51:00.718Z,12.90
2018-04-16T02:55:37.051Z,12.80
2018-04-16T02:58:11.686Z,12.80
2018-04-16T03:01:50.235Z,12.80
2018-04-16T03:04:24.733Z,12.80
2018-04-16T03:09:02.511Z,12.80
2018-04-16T03:12:39.934Z,12.70
2018-04-16T03:16:12.127Z,12.70
2018-04-16T03:20:54.438Z,12.60
2018-04-16T03:24:30.511Z,12.60
2018-04-16T03:29:09.324Z,12.60
2018-04-16T03:33:47.471Z,12.50
2018-04-16T03:37:23.875Z,12.60
2018-04-16T03:42:00.320Z,12.70
2018-04-16T03:46:38.443Z,12.90
2018-04-16T03:50:12.302Z,12.90
2018-04-16T03:52:46.375Z,12.90
2018-04-16T03:55:18.229Z,13.00
2018-04-16T03:57:47.246Z,13.00
2018-04-16T04:00:17.053Z,12.90
2018-04-16T04:02:46.877Z,12.90
2018-04-16T04:05:16.874Z,12.90
2018-04-16T04:07:47.461Z,13.00
2018-04-16T04:10:16.803Z,12.90
2018-04-16T04:12:45.896Z,13.00
2018-04-16T04:15:14.957Z,13.00
2018-04-16T04:17:44.690Z,13.00
2018-04-16T04:20:13.773Z,13.10
2018-04-16T04:22:51.918Z,13.10
2018-04-16T04:27:39.951Z,13.00
2018-04-16T04:30:23.901Z,13.00
2018-04-16T04:32:53.602Z,13.00
2018-04-16T04:35:22.955Z,13.00
2018-04-16T04:37:52.312Z,12.90
2018-04-16T04:40:22.210Z,12.90
2018-04-16T04:42:51.463Z,12.90
2018-04-16T04:45:21.081Z,13.00
2018-04-16T04:47:50.398Z,13.00
2018-04-16T04:50:20.674Z,13.00
2018-04-16T04:52:51.089Z,13.00
2018-04-16T04:55:20.839Z,12.90
2018-04-16T04:57:49.841Z,12.90
2018-04-16T05:00:19.024Z,12.80
2018-04-16T05:02:48.167Z,12.70
2018-04-16T05:05:17.183Z,12.60
2018-04-16T05:07:47.058Z,12.70
2018-04-16T05:10:16.287Z,12.70
2018-04-16T05:12:46.447Z,12.70
2018-04-16T05:15:15.795Z,12.70
2018-04-16T05:17:45.770Z,12.90
2018-04-16T05:20:16.574Z,12.90
2018-04-16T05:22:45.931Z,13.00
2018-04-16T05:25:15.202Z,13.00
2018-04-16T05:27:44.919Z,13.10
2018-04-16T05:30:14.845Z,13.00
2018-04-16T05:32:44.341Z,13.10
2018-04-16T05:35:13.865Z,13.00
2018-04-16T05:37:43.085Z,13.00
2018-04-16T05:40:12.890Z,13.00
2018-04-16T05:42:41.983Z,13.20
2018-04-16T05:45:11.083Z,13.30
2018-04-16T05:47:40.210Z,13.40
2018-04-16T05:50:10.223Z,13.40
2018-04-16T05:52:40.552Z,13.40
2018-04-16T05:55:10.799Z,13.50
2018-04-16T05:57:40.115Z,13.50
2018-04-16T06:00:09.906Z,13.60
2018-04-16T06:02:39.196Z,13.90
2018-04-16T06:05:09.771Z,14.30
2018-04-16T06:07:39.074Z,14.20
2018-04-16T06:10:08.259Z,14.40
2018-04-16T06:12:37.509Z,14.40
2018-04-16T06:15:07.299Z,14.40
2018-04-16T06:17:36.852Z,14.50
2018-04-16T06:20:06.255Z,14.30
2018-04-16T06:22:36.048Z,14.60
2018-04-16T06:25:06.816Z,15.00
2018-04-16T06:27:36.320Z,15.00
2018-04-16T06:30:05.673Z,15.10
2018-04-16T06:32:35.006Z,15.20
2018-04-16T06:35:04.305Z,15.60
2018-04-16T06:37:33.879Z,15.90
2018-04-16T06:40:03.166Z,16.10
2018-04-16T06:42:32.470Z,16.20
2018-04-16T06:45:01.595Z,16.30
2018-04-16T06:47:31.850Z,16.20
2018-04-16T06:50:02.077Z,16.20
2018-04-16T06:52:32.358Z,15.80
2018-04-16T06:55:02.401Z,15.80
2018-04-16T06:57:33.156Z,15.60
2018-04-16T07:00:03.916Z,15.40
2018-04-16T07:02:33.478Z,15.40
2018-04-16T07:05:02.682Z,15.30
2018-04-16T07:07:32.564Z,15.20
2018-04-16T07:10:01.847Z,15.10
2018-04-16T07:12:31.082Z,14.90
2018-04-16T07:15:02.239Z,14.90
2018-04-16T07:17:33.046Z,14.90
2018-04-16T07:20:04.834Z,15.20
2018-04-16T07:22:37.109Z,15.20
2018-04-16T07:25:06.420Z,15.20
2018-04-16T07:27:35.757Z,15.20
2018-04-16T07:30:05.226Z,15.30
2018-04-16T07:32:45.120Z,15.40
2018-04-16T07:35:15.444Z,15.60
2018-04-16T07:37:45.672Z,15.80
2018-04-16T07:40:15.115Z,15.70
2018-04-16T07:42:44.405Z,15.80
2018-04-16T07:45:13.797Z,15.80
2018-04-16T07:47:43.239Z,15.70
2018-04-16T07:50:12.933Z,15.80
2018-04-16T07:52:42.227Z,16.00
2018-04-16T07:55:11.578Z,16.00
2018-04-16T07:57:41.440Z,15.90
2018-04-16T08:00:12.079Z,16.40
2018-04-16T08:02:42.338Z,16.30
2018-04-16T08:05:11.996Z,16.60
2018-04-16T08:07:41.767Z,17.20
2018-04-16T08:10:11.045Z,17.20
2018-04-16T08:12:40.337Z,17.00
2018-04-16T08:15:09.891Z,17.30
2018-04-16T08:17:39.716Z,18.10
2018-04-16T08:20:09.570Z,18.80
2018-04-16T08:22:39.022Z,18.80
2018-04-16T08:25:08.253Z,18.70
2018-04-16T08:27:37.567Z,18.00
2018-04-16T08:30:06.704Z,17.60
2018-04-16T08:32:36.615Z,17.90
2018-04-16T08:35:06.633Z,17.80
2018-04-16T08:37:35.818Z,18.10
2018-04-16T08:40:04.956Z,18.50
2018-04-16T08:42:34.139Z,19.10
2018-04-16T08:45:04.430Z,19.90
2018-04-16T08:47:35.867Z,19.70
2018-04-16T08:50:05.407Z,18.80
2018-04-16T08:52:34.819Z,18.50
2018-04-16T08:55:05.557Z,18.40
2018-04-16T08:57:49.538Z,18.40
2018-04-16T09:00:26.088Z,19.80
2018-04-16T09:02:56.129Z,21.10
2018-04-16T09:05:40.277Z,22.00
2018-04-16T09:08:16.619Z,22.50
2018-04-16T09:10:47.042Z,23.10
2018-04-16T09:13:16.942Z,23.90
2018-04-16T09:15:47.186Z,24.10
2018-04-16T09:18:21.498Z,23.10
2018-04-16T09:20:53.183Z,22.70
2018-04-16T09:23:24.100Z,22.70
2018-04-16T09:25:54.418Z,20.30
2018-04-16T09:28:24.673Z,20.30
2018-04-16T09:30:54.232Z,20.10
2018-04-16T09:33:24.965Z,20.00
2018-04-16T09:35:59.668Z,19.40
2018-04-16T09:38:29.288Z,19.40
2018-04-16T09:41:00.443Z,19.40
2018-04-16T09:43:29.664Z,19.80
2018-04-16T09:45:59.290Z,21.10
2018-04-16T09:48:29.160Z,22.00
2018-04-16T09:51:02.016Z,22.70
2018-04-16T09:53:32.694Z,22.70
2018-04-16T09:56:12.549Z,23.50
2018-04-16T09:58:43.043Z,22.90
2018-04-16T10:01:16.617Z,22.50
2018-04-16T10:03:46.323Z,22.70
2018-04-16T10:06:16.523Z,22.70
2018-04-16T10:08:45.980Z,22.10
2018-04-16T10:11:15.696Z,21.40
2018-04-16T10:13:56.022Z,21.00
2018-04-16T10:16:38.507Z,20.70
2018-04-16T10:19:11.772Z,20.40
2018-04-16T10:21:48.131Z,20.10
2018-04-16T10:24:17.716Z,20.30
2018-04-16T10:26:47.191Z,20.70
2018-04-16T10:29:17.120Z,22.70
2018-04-16T10:31:46.972Z,23.90
2018-04-16T10:34:17.056Z,25.80
2018-04-16T10:36:47.117Z,27.10
2018-04-16T10:39:17.891Z,26.10
2018-04-16T10:41:53.161Z,26.00
2018-04-16T10:44:23.923Z,23.90
2018-04-16T10:47:06.260Z,22.60
2018-04-16T10:49:35.852Z,22.50
2018-04-16T10:52:12.238Z,22.40
2018-04-16T10:54:42.256Z,21.20
2018-04-16T10:57:12.138Z,20.50
2018-04-16T10:59:42.871Z,19.70
2018-04-16T11:02:13.025Z,19.60
2018-04-16T11:04:42.626Z,19.60
2018-04-16T11:07:22.590Z,20.10
2018-04-16T11:09:52.284Z,20.90
2018-04-16T11:12:23.722Z,23.00
2018-04-16T11:15:05.384Z,23.40
2018-04-16T11:17:41.680Z,23.40
2018-04-16T11:20:10.855Z,21.70
2018-04-16T11:22:40.213Z,21.10
2018-04-16T11:25:10.197Z,21.00
2018-04-16T11:27:42.229Z,22.70
2018-04-16T11:30:14.073Z,22.70
2018-04-16T11:32:46.686Z,24.30
2018-04-16T11:35:16.704Z,22.60
2018-04-16T11:37:47.035Z,23.10
2018-04-16T11:40:17.345Z,23.10
2018-04-16T11:43:15.621Z,24.20
2018-04-16T11:45:52.721Z,25.50
2018-04-16T11:48:32.715Z,26.30
2018-04-16T11:51:04.876Z,26.30
2018-04-16T11:53:34.279Z,26.00
2018-04-16T11:56:04.300Z,25.20
2018-04-16T11:58:33.948Z,24.70
2018-04-16T12:01:04.706Z,24.00
2018-04-16T12:03:35.026Z,25.90
2018-04-16T12:06:05.140Z,25.80
2018-04-16T12:08:36.880Z,25.90
2018-04-16T12:11:19.033Z,25.80
2018-04-16T12:13:49.721Z,26.00
2018-04-16T12:16:19.533Z,26.00
2018-04-16T12:18:52.579Z,24.70
2018-04-16T12:21:26.130Z,22.80
2018-04-16T12:24:19.442Z,22.20
2018-04-16T12:26:52.706Z,22.00
2018-04-16T12:29:23.955Z,24.80
2018-04-16T12:31:55.653Z,25.50
2018-04-16T12:34:26.830Z,25.50
2018-04-16T12:36:56.234Z,24.20
2018-04-16T12:39:26.193Z,21.80
2018-04-16T12:41:58.421Z,22.30
2018-04-16T12:44:27.599Z,22.30
2018-04-16T12:46:56.838Z,23.30
2018-04-16T12:49:26.707Z,22.30
2018-04-16T12:51:57.656Z,22.30
2018-04-16T12:54:26.964Z,21.10
2018-04-16T12:56:56.437Z,21.10
2018-04-16T12:59:26.124Z,21.00
2018-04-16T13:01:57.065Z,21.10
2018-04-16T13:04:27.255Z,22.70
2018-04-16T13:06:56.585Z,22.90
2018-04-16T13:09:33.182Z,22.30
2018-04-16T13:12:17.533Z,22.00
2018-04-16T13:14:47.279Z,21.70
2018-04-16T13:17:18.670Z,23.30
2018-04-16T13:19:47.894Z,25.00
2018-04-16T13:22:18.791Z,24.10
2018-04-16T13:24:48.904Z,23.00
2018-04-16T13:27:19.141Z,22.30
2018-04-16T13:29:48.879Z,22.30
2018-04-16T13:32:18.673Z,22.00
2018-04-16T13:34:48.634Z,21.50
2018-04-16T13:37:22.665Z,20.50
2018-04-16T13:40:05.403Z,20.10
2018-04-16T13:42:34.621Z,19.80
2018-04-16T13:45:14.759Z,19.80
2018-04-16T13:47:46.861Z,19.70
2018-04-16T13:50:17.941Z,19.40
2018-04-16T13:52:47.591Z,19.30
2018-04-16T13:55:17.573Z,19.50
2018-04-16T13:57:46.882Z,19.80
2018-04-16T14:00:16.976Z,20.60
2018-04-16T14:02:46.240Z,20.60
2018-04-16T14:05:15.786Z,21.10
2018-04-16T14:07:45.081Z,21.40
2018-04-16T14:10:16.695Z,21.40
2018-04-16T14:12:46.739Z,21.20
2018-04-16T14:15:16.572Z,21.30
2018-04-16T14:17:45.661Z,21.30
2018-04-16T14:20:16.304Z,21.20
2018-04-16T14:22:52.616Z,20.90
2018-04-16T14:25:21.721Z,20.40
2018-04-16T14:27:51.008Z,20.10
2018-04-16T14:30:20.174Z,20.00
2018-04-16T14:32:50.010Z,20.70
2018-04-16T14:35:19.521Z,20.70
2018-04-16T14:37:57.432Z,20.90
2018-04-16T14:40:28.503Z,20.90
2018-04-16T14:42:57.731Z,20.80
2018-04-16T14:45:29.911Z,20.50
2018-04-16T14:48:00.280Z,20.60
2018-04-16T14:50:30.795Z,20.60
2018-04-16T14:53:01.130Z,20.50
2018-04-16T14:55:30.825Z,20.50
2018-04-16T14:58:01.926Z,20.40
2018-04-16T15:00:32.389Z,20.40
2018-04-16T15:03:04.656Z,20.40
2018-04-16T15:05:38.842Z,20.20
2018-04-16T15:08:09.189Z,19.90
2018-04-16T15:10:38.697Z,19.90
2018-04-16T15:13:08.325Z,19.90
2018-04-16T15:15:38.520Z,19.80
2018-04-16T15:18:08.334Z,19.90
2018-04-16T15:20:46.444Z,19.90
2018-04-16T15:23:26.676Z,19.90
2018-04-16T15:25:57.433Z,19.90
2018-04-16T15:28:27.758Z,20.20
2018-04-16T15:30:57.970Z,20.20
2018-04-16T15:33:27.333Z,20.20
2018-04-16T15:35:56.715Z,20.10
2018-04-16T15:38:31.787Z,20.20
2018-04-16T15:41:06.407Z,20.10
2018-04-16T15:43:39.377Z,20.10
2018-04-16T15:46:08.626Z,20.10
2018-04-16T15:48:39.266Z,20.10
2018-04-16T15:51:18.505Z,20.00
2018-04-16T15:53:55.124Z,20.00
2018-04-16T15:56:26.669Z,20.00
2018-04-16T15:58:56.254Z,19.90
2018-04-16T16:01:25.838Z,19.80
2018-04-16T16:03:56.091Z,19.60
2018-04-16T16:06:25.352Z,19.50
2018-04-16T16:08:55.277Z,19.40
2018-04-16T16:11:27.351Z,19.20
2018-04-16T16:13:58.953Z,19.20
2018-04-16T16:16:31.908Z,19.00
2018-04-16T16:19:05.825Z,19.00
2018-04-16T16:21:37.072Z,18.80
2018-04-16T16:24:07.126Z,19.00
2018-04-16T16:26:44.198Z,18.90
2018-04-16T16:29:13.821Z,19.00
2018-04-16T16:31:44.138Z,18.90
2018-04-16T16:34:14.260Z,19.00
2018-04-16T16:36:43.622Z,18.90
2018-04-16T16:39:13.398Z,19.20
2018-04-16T16:41:43.432Z,19.20
2018-04-16T16:44:13.881Z,19.00
2018-04-16T16:46:44.005Z,19.00
2018-04-16T16:49:14.226Z,18.90
2018-04-16T16:51:43.638Z,18.90
2018-04-16T16:54:13.308Z,19.00
2018-04-16T16:56:43.304Z,19.00
2018-04-16T16:59:13.546Z,19.10
2018-04-16T17:01:42.924Z,19.10
2018-04-16T17:04:12.374Z,19.00
2018-04-16T17:06:42.087Z,19.10
2018-04-16T17:09:11.219Z,19.30
2018-04-16T17:11:40.910Z,19.30
2018-04-16T17:14:29.600Z,19.20
2018-04-16T17:17:16.347Z,18.90
2018-04-16T17:20:00.920Z,18.90
2018-04-16T17:22:30.560Z,18.80
2018-04-16T17:25:00.086Z,18.60
2018-04-16T17:27:30.404Z,18.30
2018-04-16T17:29:59.890Z,18.30
2018-04-16T17:32:29.486Z,18.50
2018-04-16T17:34:58.816Z,18.70
2018-04-16T17:37:28.086Z,18.80
2018-04-16T17:39:57.896Z,18.60
2018-04-16T17:42:27.469Z,18.60
2018-04-16T17:44:56.900Z,18.60
2018-04-16T17:47:26.236Z,18.70
2018-04-16T17:49:55.367Z,18.70
2018-04-16T17:52:24.746Z,18.80
2018-04-16T17:54:54.997Z,18.50
2018-04-16T17:57:25.779Z,18.60
2018-04-16T17:59:55.141Z,18.40
2018-04-16T18:02:24.497Z,18.30
2018-04-16T18:04:56.612Z,18.30
2018-04-16T18:07:26.068Z,18.50
2018-04-16T18:09:56.579Z,18.50
2018-04-16T18:12:25.780Z,18.50
2018-04-16T18:14:55.402Z,18.70
2018-04-16T18:17:25.214Z,18.90
2018-04-16T18:19:54.701Z,18.60
2018-04-16T18:22:23.933Z,18.40
2018-04-16T18:24:55.788Z,18.40
2018-04-16T18:27:27.661Z,18.30
2018-04-16T18:32:38.291Z,18.40
2018-04-16T18:35:13.635Z,18.40
2018-04-16T18:37:50.128Z,18.40
2018-04-16T18:40:22.198Z,18.40
2018-04-16T18:42:54.302Z,18.10
2018-04-16T18:45:24.829Z,18.10
2018-04-16T18:47:55.887Z,18.20
2018-04-16T18:50:28.203Z,18.00
2018-04-16T18:53:06.650Z,17.80
2018-04-16T18:55:48.078Z,17.80
2018-04-16T18:58:22.815Z,17.80
2018-04-16T19:00:52.375Z,17.90
2018-04-16T19:03:22.345Z,18.20
2018-04-16T19:05:51.868Z,18.20
2018-04-16T19:08:21.828Z,18.20
2018-04-16T19:10:51.991Z,18.00
2018-04-16T19:13:21.256Z,18.00
2018-04-16T19:15:51.934Z,17.90
2018-04-16T19:18:21.049Z,17.90
2018-04-16T19:20:54.941Z,17.80
2018-04-16T19:23:24.874Z,17.80
2018-04-16T19:25:54.561Z,17.80
2018-04-16T19:28:24.306Z,17.80
2018-04-16T19:30:54.360Z,17.90
2018-04-16T19:35:34.925Z,17.90
2018-04-16T19:38:14.902Z,17.70
2018-04-16T19:40:56.558Z,17.50
2018-04-16T19:43:26.731Z,17.50
2018-04-16T19:45:56.238Z,17.30
2018-04-16T19:48:29.742Z,17.30
2018-04-16T19:50:59.788Z,17.20
2018-04-16T19:53:37.637Z,17.20
2018-04-16T19:56:12.389Z,17.20
2018-04-16T19:58:44.317Z,17.10
2018-04-16T20:01:13.561Z,17.20
2018-04-16T20:03:48.229Z,17.20
2018-04-16T20:06:24.215Z,17.20
2018-04-16T20:08:59.370Z,17.10
2018-04-16T20:11:29.396Z,16.90
2018-04-16T20:13:59.510Z,16.40
2018-04-16T20:16:30.166Z,16.40
2018-04-16T20:19:00.000Z,16.30
2018-04-16T20:21:29.404Z,16.10
2018-04-16T20:24:00.086Z,15.90
2018-04-16T20:26:29.348Z,15.90
2018-04-16T20:28:58.582Z,15.90
2018-04-16T20:31:29.984Z,15.80
2018-04-16T20:34:00.105Z,15.80
2018-04-16T20:36:29.439Z,15.80
2018-04-16T20:38:59.925Z,15.70
2018-04-16T20:41:30.396Z,15.60
2018-04-16T20:44:15.634Z,15.60
2018-04-16T20:46:55.148Z,15.60
2018-04-16T20:49:25.339Z,15.50
2018-04-16T20:51:54.704Z,15.50
2018-04-16T20:54:24.366Z,15.40
2018-04-16T20:56:57.520Z,15.40
2018-04-16T20:59:28.904Z,15.40
2018-04-16T21:02:00.083Z,15.40
2018-04-16T21:04:29.354Z,15.40
2018-04-16T21:07:10.692Z,15.40
2018-04-16T21:09:41.297Z,15.30
2018-04-16T21:12:10.652Z,15.30
2018-04-16T21:14:39.895Z,15.20
2018-04-16T21:17:09.894Z,15.00
2018-04-16T21:19:41.172Z,15.00
2018-04-16T21:22:10.666Z,15.10
2018-04-16T21:24:40.709Z,15.40
2018-04-16T21:27:11.865Z,15.40
2018-04-16T21:29:42.083Z,15.20
2018-04-16T21:32:12.921Z,15.00
2018-04-16T21:34:43.964Z,14.90
2018-04-16T21:37:13.471Z,14.80
2018-04-16T21:39:43.062Z,14.70
2018-04-16T21:42:12.201Z,14.60
2018-04-16T21:44:41.380Z,14.60
2018-04-16T21:47:10.897Z,14.60
2018-04-16T21:49:40.354Z,14.50
2018-04-16T21:52:11.598Z,14.50
2018-04-16T21:54:41.084Z,14.40
2018-04-16T21:57:10.982Z,14.30
2018-04-16T21:59:40.263Z,14.20
2018-04-16T22:02:09.772Z,14.20
2018-04-16T22:04:41.172Z,14.10
2018-04-16T22:07:10.389Z,14.10
2018-04-16T22:09:40.346Z,14.00
2018-04-16T22:12:09.732Z,14.00
2018-04-16T22:14:40.576Z,14.00
2018-04-16T22:17:10.865Z,13.90
2018-04-16T22:19:40.607Z,13.90
2018-04-16T22:22:17.061Z,13.80
2018-04-16T22:24:55.697Z,13.80
2018-04-16T22:27:32.520Z,13.80
2018-04-16T22:30:01.709Z,13.80
2018-04-16T22:32:31.874Z,13.70
2018-04-16T22:35:01.449Z,13.70
2018-04-16T22:37:38.049Z,13.70
2018-04-16T22:40:07.141Z,13.70
2018-04-16T22:42:37.604Z,13.70
2018-04-16T22:45:06.831Z,13.60
2018-04-16T22:47:38.007Z,13.50
2018-04-16T22:50:07.620Z,13.50
2018-04-16T22:52:39.208Z,13.50
2018-04-16T22:55:10.022Z,13.50
2018-04-16T22:57:39.826Z,13.40
2018-04-16T23:00:09.504Z,13.30
2018-04-16T23:02:39.119Z,13.30
2018-04-16T23:05:08.848Z,13.20
2018-04-16T23:07:39.543Z,13.20
2018-04-16T23:10:09.821Z,13.10
2018-04-16T23:12:39.153Z,13.10
2018-04-16T23:15:09.216Z,13.00
2018-04-16T23:17:40.145Z,12.90
2018-04-16T23:20:09.293Z,12.90
2018-04-16T23:22:39.023Z,12.80
2018-04-16T23:25:09.491Z,12.70
2018-04-16T23:27:39.338Z,12.70
2018-04-16T23:30:08.737Z,12.70
2018-04-16T23:32:47.723Z,12.60
2018-04-16T23:35:30.024Z,12.60
2018-04-16T23:38:17.210Z,12.60
2018-04-16T23:40:47.565Z,12.60
2018-04-16T23:43:18.252Z,12.60
2018-04-16T23:46:00.282Z,12.50
2018-04-16T23:48:52.156Z,12.40
2018-04-16T23:51:38.844Z,12.30
2018-04-16T23:54:32.083Z,12.30
2018-04-16T23:59:57.557Z,12.20
